sensor_id;sensor_type;location;lat;lon;timestamp;pressure;altitude;pressure_sealevel;temperature;humidity
76137;BME280;65019;53.174;18.166;2022-11-14T00:00:47;102581.59;;;8.36;78.03
76137;BME280;65019;53.174;18.166;2022-11-14T00:03:32;102581.09;;;8.32;78.05
76137;BME280;65019;53.174;18.166;2022-11-14T00:06:19;102575.41;;;8.28;77.95
76137;BME280;65019;53.174;18.166;2022-11-14T00:09:04;102568.52;;;8.39;77.50
76137;BME280;65019;53.174;18.166;2022-11-14T00:11:49;102567.73;;;8.44;77.40
76137;BME280;65019;53.174;18.166;2022-11-14T00:14:35;102565.11;;;8.48;77.33
76137;BME280;65019;53.174;18.166;2022-11-14T00:17:20;102564.55;;;8.42;77.81
76137;BME280;65019;53.174;18.166;2022-11-14T00:20:07;102563.89;;;8.30;78.18
76137;BME280;65019;53.174;18.166;2022-11-14T00:22:53;102567.91;;;8.29;77.90
76137;BME280;65019;53.174;18.166;2022-11-14T00:25:38;102564.21;;;8.42;77.20
76137;BME280;65019;53.174;18.166;2022-11-14T00:28:24;102569.02;;;8.35;77.51
76137;BME280;65019;53.174;18.166;2022-11-14T00:31:10;102562.83;;;8.30;77.28
76137;BME280;65019;53.174;18.166;2022-11-14T00:33:55;102569.48;;;8.18;77.75
76137;BME280;65019;53.174;18.166;2022-11-14T00:36:40;102561.26;;;8.13;77.69
76137;BME280;65019;53.174;18.166;2022-11-14T00:39:26;102561.68;;;8.33;76.85
76137;BME280;65019;53.174;18.166;2022-11-14T00:42:11;102562.19;;;8.26;77.32
76137;BME280;65019;53.174;18.166;2022-11-14T00:44:57;102561.08;;;8.24;77.40
76137;BME280;65019;53.174;18.166;2022-11-14T00:47:42;102565.08;;;8.10;77.48
76137;BME280;65019;53.174;18.166;2022-11-14T00:50:27;102557.45;;;8.06;77.24
76137;BME280;65019;53.174;18.166;2022-11-14T00:53:13;102556.73;;;8.11;77.24
76137;BME280;65019;53.174;18.166;2022-11-14T00:55:58;102556.79;;;8.20;76.89
76137;BME280;65019;53.174;18.166;2022-11-14T00:58:44;102553.81;;;8.13;77.05
76137;BME280;65019;53.174;18.166;2022-11-14T01:01:29;102554.04;;;8.09;77.01
76137;BME280;65019;53.174;18.166;2022-11-14T01:04:15;102549.56;;;8.05;77.18
76137;BME280;65019;53.174;18.166;2022-11-14T01:07:00;102545.04;;;7.98;77.18
76137;BME280;65019;53.174;18.166;2022-11-14T01:09:45;102538.80;;;8.03;76.91
76137;BME280;65019;53.174;18.166;2022-11-14T01:12:30;102534.58;;;7.97;77.22
76137;BME280;65019;53.174;18.166;2022-11-14T01:15:17;102530.71;;;7.87;77.00
76137;BME280;65019;53.174;18.166;2022-11-14T01:18:02;102528.38;;;7.82;76.83
76137;BME280;65019;53.174;18.166;2022-11-14T01:20:48;102527.07;;;7.95;76.42
76137;BME280;65019;53.174;18.166;2022-11-14T01:23:34;102520.45;;;7.85;76.65
76137;BME280;65019;53.174;18.166;2022-11-14T01:26:19;102514.66;;;7.83;76.59
76137;BME280;65019;53.174;18.166;2022-11-14T01:29:04;102509.42;;;7.74;76.80
76137;BME280;65019;53.174;18.166;2022-11-14T01:31:50;102511.61;;;7.72;76.72
76137;BME280;65019;53.174;18.166;2022-11-14T01:34:35;102505.18;;;7.80;76.40
76137;BME280;65019;53.174;18.166;2022-11-14T01:37:20;102502.70;;;7.74;76.64
76137;BME280;65019;53.174;18.166;2022-11-14T01:40:06;102497.08;;;7.64;76.48
76137;BME280;65019;53.174;18.166;2022-11-14T01:46:07;102486.40;;;7.64;76.40
76137;BME280;65019;53.174;18.166;2022-11-14T01:48:59;102486.02;;;7.57;76.58
76137;BME280;65019;53.174;18.166;2022-11-14T01:52:02;102483.63;;;7.53;76.58
76137;BME280;65019;53.174;18.166;2022-11-14T01:54:51;102489.10;;;7.47;76.71
76137;BME280;65019;53.174;18.166;2022-11-14T01:57:45;102486.15;;;7.47;76.84
76137;BME280;65019;53.174;18.166;2022-11-14T02:00:30;102483.31;;;7.53;76.35
76137;BME280;65019;53.174;18.166;2022-11-14T02:03:16;102477.03;;;7.54;76.31
76137;BME280;65019;53.174;18.166;2022-11-14T02:06:02;102479.52;;;7.49;76.17
76137;BME280;65019;53.174;18.166;2022-11-14T02:08:49;102478.33;;;7.45;76.56
76137;BME280;65019;53.174;18.166;2022-11-14T02:11:38;102473.95;;;7.53;76.12
76137;BME280;65019;53.174;18.166;2022-11-14T02:14:26;102469.08;;;7.50;76.26
76137;BME280;65019;53.174;18.166;2022-11-14T02:17:13;102466.04;;;7.49;76.05
76137;BME280;65019;53.174;18.166;2022-11-14T02:22:47;102468.09;;;7.56;75.70
76137;BME280;65019;53.174;18.166;2022-11-14T02:25:33;102460.54;;;7.63;75.54
76137;BME280;65019;53.174;18.166;2022-11-14T02:28:18;102458.38;;;7.57;75.48
76137;BME280;65019;53.174;18.166;2022-11-14T02:31:05;102452.80;;;7.48;75.27
76137;BME280;65019;53.174;18.166;2022-11-14T02:33:50;102445.57;;;7.47;75.55
76137;BME280;65019;53.174;18.166;2022-11-14T02:36:35;102443.77;;;7.52;75.27
76137;BME280;65019;53.174;18.166;2022-11-14T02:39:22;102440.83;;;7.67;74.89
76137;BME280;65019;53.174;18.166;2022-11-14T02:42:07;102438.31;;;7.66;74.74
76137;BME280;65019;53.174;18.166;2022-11-14T02:44:52;102439.29;;;7.63;74.65
76137;BME280;65019;53.174;18.166;2022-11-14T02:47:38;102434.92;;;7.53;74.60
76137;BME280;65019;53.174;18.166;2022-11-14T02:50:23;102437.35;;;7.71;73.90
76137;BME280;65019;53.174;18.166;2022-11-14T02:53:09;102432.55;;;7.74;73.75
76137;BME280;65019;53.174;18.166;2022-11-14T02:55:54;102425.99;;;7.67;74.23
76137;BME280;65019;53.174;18.166;2022-11-14T02:58:39;102428.95;;;7.59;74.22
76137;BME280;65019;53.174;18.166;2022-11-14T03:01:24;102428.12;;;7.51;74.71
76137;BME280;65019;53.174;18.166;2022-11-14T03:04:10;102426.73;;;7.69;74.14
76137;BME280;65019;53.174;18.166;2022-11-14T03:06:55;102426.38;;;7.66;74.23
76137;BME280;65019;53.174;18.166;2022-11-14T03:09:40;102419.55;;;7.61;74.44
76137;BME280;65019;53.174;18.166;2022-11-14T03:12:26;102420.77;;;7.57;74.50
76137;BME280;65019;53.174;18.166;2022-11-14T03:15:11;102414.97;;;7.48;75.01
76137;BME280;65019;53.174;18.166;2022-11-14T03:17:57;102419.59;;;7.63;74.35
76137;BME280;65019;53.174;18.166;2022-11-14T03:20:42;102414.48;;;7.66;74.19
76137;BME280;65019;53.174;18.166;2022-11-14T03:23:27;102409.11;;;7.55;74.38
76137;BME280;65019;53.174;18.166;2022-11-14T03:26:13;102400.34;;;7.44;74.81
76137;BME280;65019;53.174;18.166;2022-11-14T03:28:59;102401.84;;;7.45;74.69
76137;BME280;65019;53.174;18.166;2022-11-14T03:31:44;102396.14;;;7.62;74.36
76137;BME280;65019;53.174;18.166;2022-11-14T03:34:30;102395.62;;;7.63;74.48
76137;BME280;65019;53.174;18.166;2022-11-14T03:37:15;102392.88;;;7.59;74.51
76137;BME280;65019;53.174;18.166;2022-11-14T03:40:00;102394.65;;;7.58;74.73
76137;BME280;65019;53.174;18.166;2022-11-14T03:42:46;102393.77;;;7.58;74.60
76137;BME280;65019;53.174;18.166;2022-11-14T03:45:31;102400.85;;;7.69;74.02
76137;BME280;65019;53.174;18.166;2022-11-14T03:48:16;102399.80;;;7.66;73.90
76137;BME280;65019;53.174;18.166;2022-11-14T03:51:02;102397.90;;;7.55;74.13
76137;BME280;65019;53.174;18.166;2022-11-14T03:53:47;102400.02;;;7.50;74.36
76137;BME280;65019;53.174;18.166;2022-11-14T03:56:32;102394.21;;;7.52;74.07
76137;BME280;65019;53.174;18.166;2022-11-14T03:59:18;102392.01;;;7.66;73.98
76137;BME280;65019;53.174;18.166;2022-11-14T04:02:03;102388.85;;;7.64;73.93
76137;BME280;65019;53.174;18.166;2022-11-14T04:04:48;102382.36;;;7.58;74.24
76137;BME280;65019;53.174;18.166;2022-11-14T04:07:34;102377.94;;;7.60;74.03
76137;BME280;65019;53.174;18.166;2022-11-14T04:10:19;102371.27;;;7.69;73.66
76137;BME280;65019;53.174;18.166;2022-11-14T04:13:05;102372.59;;;7.75;73.22
76137;BME280;65019;53.174;18.166;2022-11-14T04:15:54;102373.40;;;7.65;73.39
76137;BME280;65019;53.174;18.166;2022-11-14T04:18:40;102370.02;;;7.60;73.48
76137;BME280;65019;53.174;18.166;2022-11-14T04:21:25;102367.94;;;7.71;73.41
76137;BME280;65019;53.174;18.166;2022-11-14T04:24:11;102363.31;;;7.70;73.41
76137;BME280;65019;53.174;18.166;2022-11-14T04:26:56;102359.46;;;7.57;73.62
76137;BME280;65019;53.174;18.166;2022-11-14T04:29:42;102355.81;;;7.50;73.82
76137;BME280;65019;53.174;18.166;2022-11-14T04:32:27;102348.95;;;7.60;73.89
76137;BME280;65019;53.174;18.166;2022-11-14T04:35:12;102350.63;;;7.65;73.66
76137;BME280;65019;53.174;18.166;2022-11-14T04:37:58;102354.35;;;7.63;73.51
76137;BME280;65019;53.174;18.166;2022-11-14T04:40:53;102353.85;;;7.52;73.94
76137;BME280;65019;53.174;18.166;2022-11-14T04:43:38;102351.55;;;7.53;73.87
76137;BME280;65019;53.174;18.166;2022-11-14T04:46:23;102351.33;;;7.61;73.89
76137;BME280;65019;53.174;18.166;2022-11-14T04:49:08;102349.19;;;7.66;73.80
76137;BME280;65019;53.174;18.166;2022-11-14T04:51:54;102349.84;;;7.53;73.86
76137;BME280;65019;53.174;18.166;2022-11-14T04:54:39;102349.19;;;7.55;73.90
76137;BME280;65019;53.174;18.166;2022-11-14T04:57:24;102349.22;;;7.61;73.89
76137;BME280;65019;53.174;18.166;2022-11-14T05:00:11;102352.08;;;7.59;73.92
76137;BME280;65019;53.174;18.166;2022-11-14T05:02:58;102343.89;;;7.54;74.01
76137;BME280;65019;53.174;18.166;2022-11-14T05:05:44;102342.23;;;7.56;74.24
76137;BME280;65019;53.174;18.166;2022-11-14T05:08:29;102339.44;;;7.57;74.00
76137;BME280;65019;53.174;18.166;2022-11-14T05:11:16;102338.59;;;7.53;74.25
76137;BME280;65019;53.174;18.166;2022-11-14T05:14:02;102331.63;;;7.44;74.54
76137;BME280;65019;53.174;18.166;2022-11-14T05:16:47;102337.27;;;7.41;74.79
76137;BME280;65019;53.174;18.166;2022-11-14T05:19:32;102326.91;;;7.45;74.67
76137;BME280;65019;53.174;18.166;2022-11-14T05:22:18;102327.19;;;7.50;74.55
76137;BME280;65019;53.174;18.166;2022-11-14T05:25:05;102328.14;;;7.44;74.64
76137;BME280;65019;53.174;18.166;2022-11-14T05:27:50;102333.19;;;7.47;74.52
76137;BME280;65019;53.174;18.166;2022-11-14T05:30:35;102338.02;;;7.43;74.62
76137;BME280;65019;53.174;18.166;2022-11-14T05:33:21;102340.09;;;7.40;74.68
76137;BME280;65019;53.174;18.166;2022-11-14T05:36:12;102338.04;;;7.33;74.98
76137;BME280;65019;53.174;18.166;2022-11-14T05:38:58;102340.55;;;7.35;74.79
76137;BME280;65019;53.174;18.166;2022-11-14T05:41:43;102341.79;;;7.44;74.71
76137;BME280;65019;53.174;18.166;2022-11-14T05:44:29;102345.58;;;7.51;74.45
76137;BME280;65019;53.174;18.166;2022-11-14T05:47:14;102347.63;;;7.48;74.20
76137;BME280;65019;53.174;18.166;2022-11-14T05:50:00;102346.70;;;7.35;74.54
76137;BME280;65019;53.174;18.166;2022-11-14T05:52:45;102347.23;;;7.32;74.62
76137;BME280;65019;53.174;18.166;2022-11-14T05:55:30;102348.29;;;7.45;74.37
76137;BME280;65019;53.174;18.166;2022-11-14T05:58:16;102347.83;;;7.44;74.31
76137;BME280;65019;53.174;18.166;2022-11-14T06:01:12;102348.65;;;7.42;74.49
76137;BME280;65019;53.174;18.166;2022-11-14T06:03:58;102348.43;;;7.32;74.66
76137;BME280;65019;53.174;18.166;2022-11-14T06:06:43;102350.45;;;7.30;74.27
76137;BME280;65019;53.174;18.166;2022-11-14T06:09:28;102354.34;;;7.38;74.15
76137;BME280;65019;53.174;18.166;2022-11-14T06:12:14;102358.35;;;7.38;74.14
76137;BME280;65019;53.174;18.166;2022-11-14T06:14:59;102361.70;;;7.33;74.48
76137;BME280;65019;53.174;18.166;2022-11-14T06:17:45;102358.88;;;7.23;74.62
76137;BME280;65019;53.174;18.166;2022-11-14T06:20:30;102356.27;;;7.16;74.63
76137;BME280;65019;53.174;18.166;2022-11-14T06:23:16;102358.95;;;7.21;74.70
76137;BME280;65019;53.174;18.166;2022-11-14T06:26:03;102357.70;;;7.36;74.54
76137;BME280;65019;53.174;18.166;2022-11-14T06:28:50;102354.73;;;7.38;74.44
76137;BME280;65019;53.174;18.166;2022-11-14T06:31:35;102357.98;;;7.31;74.53
76137;BME280;65019;53.174;18.166;2022-11-14T06:34:20;102358.42;;;7.32;74.32
76137;BME280;65019;53.174;18.166;2022-11-14T06:37:06;102353.92;;;7.29;74.52
76137;BME280;65019;53.174;18.166;2022-11-14T06:39:51;102351.16;;;7.36;74.38
76137;BME280;65019;53.174;18.166;2022-11-14T06:42:36;102352.67;;;7.34;74.54
76137;BME280;65019;53.174;18.166;2022-11-14T06:45:22;102356.34;;;7.22;74.50
76137;BME280;65019;53.174;18.166;2022-11-14T06:48:07;102356.08;;;7.20;74.64
76137;BME280;65019;53.174;18.166;2022-11-14T06:50:54;102357.02;;;7.26;74.50
76137;BME280;65019;53.174;18.166;2022-11-14T06:53:41;102357.63;;;7.24;74.45
76137;BME280;65019;53.174;18.166;2022-11-14T06:56:26;102360.37;;;7.13;74.73
76137;BME280;65019;53.174;18.166;2022-11-14T06:59:11;102357.44;;;7.21;74.56
76137;BME280;65019;53.174;18.166;2022-11-14T07:01:57;102363.48;;;7.13;75.03
76137;BME280;65019;53.174;18.166;2022-11-14T07:04:42;102361.98;;;7.16;74.72
76137;BME280;65019;53.174;18.166;2022-11-14T07:07:27;102359.31;;;7.14;74.80
76137;BME280;65019;53.174;18.166;2022-11-14T07:10:13;102362.95;;;7.10;75.00
76137;BME280;65019;53.174;18.166;2022-11-14T07:12:58;102369.09;;;7.08;75.25
76137;BME280;65019;53.174;18.166;2022-11-14T07:15:53;102365.26;;;7.23;75.01
76137;BME280;65019;53.174;18.166;2022-11-14T07:18:39;102360.11;;;7.30;74.89
76137;BME280;65019;53.174;18.166;2022-11-14T07:21:25;102362.82;;;7.27;74.95
76137;BME280;65019;53.174;18.166;2022-11-14T07:24:11;102364.33;;;7.21;75.07
76137;BME280;65019;53.174;18.166;2022-11-14T07:26:56;102366.98;;;7.23;75.06
76137;BME280;65019;53.174;18.166;2022-11-14T07:29:41;102365.27;;;7.37;74.71
76137;BME280;65019;53.174;18.166;2022-11-14T07:32:27;102367.06;;;7.43;74.64
76137;BME280;65019;53.174;18.166;2022-11-14T07:35:12;102367.78;;;7.39;74.64
76137;BME280;65019;53.174;18.166;2022-11-14T07:38:02;102365.09;;;7.31;74.66
76137;BME280;65019;53.174;18.166;2022-11-14T07:40:59;102360.32;;;7.39;74.30
76137;BME280;65019;53.174;18.166;2022-11-14T07:43:44;102361.97;;;7.41;74.26
76137;BME280;65019;53.174;18.166;2022-11-14T07:46:30;102362.45;;;7.35;73.98
76137;BME280;65019;53.174;18.166;2022-11-14T07:49:15;102359.73;;;7.23;74.26
76137;BME280;65019;53.174;18.166;2022-11-14T07:52:01;102361.67;;;7.26;74.01
76137;BME280;65019;53.174;18.166;2022-11-14T07:54:46;102357.15;;;7.30;74.00
76137;BME280;65019;53.174;18.166;2022-11-14T07:57:31;102347.68;;;7.37;73.81
76137;BME280;65019;53.174;18.166;2022-11-14T08:00:17;102348.64;;;7.20;74.11
76137;BME280;65019;53.174;18.166;2022-11-14T08:03:02;102348.77;;;7.22;74.33
76137;BME280;65019;53.174;18.166;2022-11-14T08:05:47;102340.06;;;7.34;73.99
76137;BME280;65019;53.174;18.166;2022-11-14T08:08:33;102336.08;;;7.48;73.38
76137;BME280;65019;53.174;18.166;2022-11-14T08:11:19;102332.61;;;7.28;74.04
76137;BME280;65019;53.174;18.166;2022-11-14T08:14:26;102329.59;;;7.26;73.84
76137;BME280;65019;53.174;18.166;2022-11-14T08:17:12;102331.48;;;7.25;73.94
76137;BME280;65019;53.174;18.166;2022-11-14T08:19:57;102327.96;;;7.23;74.03
76137;BME280;65019;53.174;18.166;2022-11-14T08:22:43;102319.73;;;7.22;74.09
76137;BME280;65019;53.174;18.166;2022-11-14T08:25:28;102322.36;;;7.18;74.25
76137;BME280;65019;53.174;18.166;2022-11-14T08:28:13;102317.97;;;7.27;74.04
76137;BME280;65019;53.174;18.166;2022-11-14T08:31:00;102316.44;;;7.30;74.10
76137;BME280;65019;53.174;18.166;2022-11-14T08:33:46;102316.55;;;7.31;73.96
76137;BME280;65019;53.174;18.166;2022-11-14T08:36:33;102313.72;;;7.25;74.15
76137;BME280;65019;53.174;18.166;2022-11-14T08:39:19;102313.51;;;7.19;74.09
76137;BME280;65019;53.174;18.166;2022-11-14T08:42:04;102314.27;;;7.35;74.00
76137;BME280;65019;53.174;18.166;2022-11-14T08:44:49;102313.27;;;7.31;74.06
76137;BME280;65019;53.174;18.166;2022-11-14T08:47:35;102309.89;;;7.37;73.77
76137;BME280;65019;53.174;18.166;2022-11-14T08:50:20;102301.45;;;7.29;73.72
76137;BME280;65019;53.174;18.166;2022-11-14T08:53:06;102300.49;;;7.42;73.82
76137;BME280;65019;53.174;18.166;2022-11-14T08:55:51;102296.06;;;7.47;73.55
76137;BME280;65019;53.174;18.166;2022-11-14T08:58:36;102299.70;;;7.40;73.70
76137;BME280;65019;53.174;18.166;2022-11-14T09:01:21;102297.20;;;7.35;73.72
76137;BME280;65019;53.174;18.166;2022-11-14T09:04:07;102298.15;;;7.43;73.67
76137;BME280;65019;53.174;18.166;2022-11-14T09:06:53;102299.56;;;7.46;73.67
76137;BME280;65019;53.174;18.166;2022-11-14T09:09:38;102298.69;;;7.47;73.07
76137;BME280;65019;53.174;18.166;2022-11-14T09:12:23;102296.14;;;7.32;73.21
76137;BME280;65019;53.174;18.166;2022-11-14T09:15:09;102296.05;;;7.64;72.48
76137;BME280;65019;53.174;18.166;2022-11-14T09:17:55;102293.89;;;7.63;72.15
76137;BME280;65019;53.174;18.166;2022-11-14T09:20:41;102284.60;;;7.59;72.23
76137;BME280;65019;53.174;18.166;2022-11-14T09:23:26;102286.69;;;7.48;72.38
76137;BME280;65019;53.174;18.166;2022-11-14T09:26:12;102286.55;;;7.58;72.42
76137;BME280;65019;53.174;18.166;2022-11-14T09:28:58;102283.31;;;7.63;72.33
76137;BME280;65019;53.174;18.166;2022-11-14T09:31:43;102278.08;;;7.65;72.24
76137;BME280;65019;53.174;18.166;2022-11-14T09:34:29;102276.38;;;7.57;72.82
76137;BME280;65019;53.174;18.166;2022-11-14T09:37:14;102270.33;;;7.61;72.75
76137;BME280;65019;53.174;18.166;2022-11-14T09:40:00;102265.12;;;7.65;72.50
76137;BME280;65019;53.174;18.166;2022-11-14T09:43:30;102265.93;;;7.59;72.79
76137;BME280;65019;53.174;18.166;2022-11-14T09:46:29;102262.36;;;7.51;72.93
76137;BME280;65019;53.174;18.166;2022-11-14T09:49:29;102256.61;;;7.59;72.78
76137;BME280;65019;53.174;18.166;2022-11-14T09:52:24;102255.92;;;7.62;72.78
76137;BME280;65019;53.174;18.166;2022-11-14T09:55:16;102256.64;;;7.61;72.83
76137;BME280;65019;53.174;18.166;2022-11-14T09:58:02;102260.59;;;7.59;72.67
76137;BME280;65019;53.174;18.166;2022-11-14T10:01:05;102255.81;;;7.75;72.43
76137;BME280;65019;53.174;18.166;2022-11-14T10:04:01;102250.52;;;7.80;72.44
76137;BME280;65019;53.174;18.166;2022-11-14T10:28:21;102216.28;;;8.29;70.95
76137;BME280;65019;53.174;18.166;2022-11-14T10:34:26;102209.16;;;8.36;70.83
76137;BME280;65019;53.174;18.166;2022-11-14T10:37:24;102210.62;;;8.47;70.12
76137;BME280;65019;53.174;18.166;2022-11-14T10:40:18;102211.09;;;8.32;70.62
76137;BME280;65019;53.174;18.166;2022-11-14T10:46:36;102201.38;;;8.26;70.74
76137;BME280;65019;53.174;18.166;2022-11-14T10:49:24;102195.86;;;8.29;70.40
76137;BME280;65019;53.174;18.166;2022-11-14T10:52:13;102190.45;;;8.21;70.46
76137;BME280;65019;53.174;18.166;2022-11-14T10:55:06;102187.64;;;8.22;70.58
76137;BME280;65019;53.174;18.166;2022-11-14T10:57:52;102187.76;;;8.51;70.09
76137;BME280;65019;53.174;18.166;2022-11-14T11:00:37;102182.84;;;8.53;69.08
76137;BME280;65019;53.174;18.166;2022-11-14T11:03:40;102176.86;;;8.51;69.33
76137;BME280;65019;53.174;18.166;2022-11-14T11:06:27;102174.89;;;8.68;69.05
76137;BME280;65019;53.174;18.166;2022-11-14T11:09:17;102172.77;;;8.65;68.82
76137;BME280;65019;53.174;18.166;2022-11-14T11:15:25;102171.59;;;8.70;69.58
76137;BME280;65019;53.174;18.166;2022-11-14T11:18:28;102172.29;;;8.77;69.47
76137;BME280;65019;53.174;18.166;2022-11-14T11:21:15;102164.02;;;8.88;69.09
76137;BME280;65019;53.174;18.166;2022-11-14T11:24:01;102164.17;;;8.82;69.15
76137;BME280;65019;53.174;18.166;2022-11-14T11:26:46;102162.83;;;8.76;69.54
76137;BME280;65019;53.174;18.166;2022-11-14T11:29:32;102167.63;;;8.73;69.31
76137;BME280;65019;53.174;18.166;2022-11-14T11:32:24;102162.71;;;8.75;69.32
76137;BME280;65019;53.174;18.166;2022-11-14T11:35:12;102161.73;;;8.80;68.85
76137;BME280;65019;53.174;18.166;2022-11-14T11:38:00;102162.11;;;8.61;69.20
76137;BME280;65019;53.174;18.166;2022-11-14T11:40:49;102162.51;;;8.48;69.95
76137;BME280;65019;53.174;18.166;2022-11-14T11:43:41;102158.87;;;8.42;70.12
76137;BME280;65019;53.174;18.166;2022-11-14T11:49:39;102141.67;;;8.71;69.55
76137;BME280;65019;53.174;18.166;2022-11-14T11:52:33;102140.30;;;8.67;69.38
76137;BME280;65019;53.174;18.166;2022-11-14T11:55:32;102141.04;;;8.52;69.91
76137;BME280;65019;53.174;18.166;2022-11-14T11:58:25;102134.20;;;8.44;69.96
76137;BME280;65019;53.174;18.166;2022-11-14T12:01:12;102134.42;;;8.58;69.58
76137;BME280;65019;53.174;18.166;2022-11-14T12:03:59;102134.15;;;8.63;69.76
76137;BME280;65019;53.174;18.166;2022-11-14T12:07:03;102131.02;;;8.57;69.76
76137;BME280;65019;53.174;18.166;2022-11-14T12:09:51;102127.73;;;8.48;70.16
76137;BME280;65019;53.174;18.166;2022-11-14T12:15:55;102128.95;;;8.63;69.44
76137;BME280;65019;53.174;18.166;2022-11-14T12:30:34;102113.00;;;8.61;69.49
76137;BME280;65019;53.174;18.166;2022-11-14T12:36:12;102103.66;;;8.49;69.94
76137;BME280;65019;53.174;18.166;2022-11-14T12:38:59;102098.61;;;8.40;70.38
76137;BME280;65019;53.174;18.166;2022-11-14T12:41:45;102096.36;;;8.47;70.58
76137;BME280;65019;53.174;18.166;2022-11-14T12:44:34;102096.45;;;8.42;70.71
76137;BME280;65019;53.174;18.166;2022-11-14T12:47:24;102095.81;;;8.22;71.27
76137;BME280;65019;53.174;18.166;2022-11-14T12:50:40;102098.16;;;8.26;70.92
76137;BME280;65019;53.174;18.166;2022-11-14T13:05:23;102085.08;;;8.23;71.00
76137;BME280;65019;53.174;18.166;2022-11-14T13:08:28;102082.05;;;8.18;71.61
76137;BME280;65019;53.174;18.166;2022-11-14T13:11:34;102081.90;;;8.12;71.94
76137;BME280;65019;53.174;18.166;2022-11-14T13:14:48;102081.44;;;8.01;72.03
76137;BME280;65019;53.174;18.166;2022-11-14T13:18:23;102076.72;;;8.11;71.69
76137;BME280;65019;53.174;18.166;2022-11-14T13:21:28;102079.58;;;8.16;71.85
76137;BME280;65019;53.174;18.166;2022-11-14T13:27:46;102072.90;;;8.15;71.68
76137;BME280;65019;53.174;18.166;2022-11-14T13:40:18;102075.78;;;8.31;71.13
76137;BME280;65019;53.174;18.166;2022-11-14T13:46:36;102070.56;;;8.04;71.82
76137;BME280;65019;53.174;18.166;2022-11-14T13:52:30;102059.95;;;8.09;71.89
76137;BME280;65019;53.174;18.166;2022-11-14T13:55:21;102054.48;;;8.26;71.14
76137;BME280;65019;53.174;18.166;2022-11-14T13:58:35;102054.94;;;8.27;71.00
76137;BME280;65019;53.174;18.166;2022-11-14T14:10:26;102044.96;;;8.23;71.36
76137;BME280;65019;53.174;18.166;2022-11-14T14:16:30;102032.32;;;7.93;72.01
76137;BME280;65019;53.174;18.166;2022-11-14T14:19:29;102023.16;;;8.05;71.76
76137;BME280;65019;53.174;18.166;2022-11-14T14:23:27;102022.07;;;8.00;71.83
76137;BME280;65019;53.174;18.166;2022-11-14T14:29:19;102014.02;;;8.02;71.57
76137;BME280;65019;53.174;18.166;2022-11-14T14:31:39;102009.64;;;8.24;70.91
76137;BME280;65019;53.174;18.166;2022-11-14T14:34:30;102006.04;;;8.21;71.31
76137;BME280;65019;53.174;18.166;2022-11-14T14:37:21;102004.47;;;8.12;71.49
76137;BME280;65019;53.174;18.166;2022-11-14T14:40:20;102007.63;;;8.05;71.31
76137;BME280;65019;53.174;18.166;2022-11-14T14:43:06;102009.40;;;8.04;71.40
76137;BME280;65019;53.174;18.166;2022-11-14T14:45:57;102006.88;;;8.15;71.03
76137;BME280;65019;53.174;18.166;2022-11-14T14:48:43;102008.09;;;8.30;70.92
76137;BME280;65019;53.174;18.166;2022-11-14T14:51:35;102003.96;;;8.20;71.25
76137;BME280;65019;53.174;18.166;2022-11-14T14:54:23;102000.22;;;8.19;71.31
76137;BME280;65019;53.174;18.166;2022-11-14T14:57:16;102002.21;;;8.12;71.28
76137;BME280;65019;53.174;18.166;2022-11-14T15:00:05;101993.20;;;7.85;72.56
76137;BME280;65019;53.174;18.166;2022-11-14T15:02:54;101992.02;;;7.85;72.66
76137;BME280;65019;53.174;18.166;2022-11-14T15:05:39;101990.61;;;7.88;72.40
76137;BME280;65019;53.174;18.166;2022-11-14T15:08:25;101986.48;;;7.85;72.43
76137;BME280;65019;53.174;18.166;2022-11-14T15:11:13;101993.30;;;7.83;72.34
76137;BME280;65019;53.174;18.166;2022-11-14T15:13:59;101986.58;;;7.98;71.79
76137;BME280;65019;53.174;18.166;2022-11-14T15:16:47;101979.66;;;7.98;72.08
76137;BME280;65019;53.174;18.166;2022-11-14T15:19:43;101983.83;;;8.07;71.71
76137;BME280;65019;53.174;18.166;2022-11-14T15:22:29;101984.27;;;7.90;72.13
76137;BME280;65019;53.174;18.166;2022-11-14T15:27:59;101981.73;;;7.77;72.30
76137;BME280;65019;53.174;18.166;2022-11-14T15:31:00;101986.02;;;7.96;71.94
76137;BME280;65019;53.174;18.166;2022-11-14T15:34:06;101988.08;;;8.08;71.42
76137;BME280;65019;53.174;18.166;2022-11-14T15:40:14;101983.68;;;7.95;71.84
76137;BME280;65019;53.174;18.166;2022-11-14T15:43:36;101986.77;;;7.80;72.06
76137;BME280;65019;53.174;18.166;2022-11-14T15:46:31;101984.34;;;7.83;72.28
76137;BME280;65019;53.174;18.166;2022-11-14T15:49:19;101976.17;;;7.87;72.33
76137;BME280;65019;53.174;18.166;2022-11-14T15:52:17;101970.95;;;7.81;72.48
76137;BME280;65019;53.174;18.166;2022-11-14T15:55:12;101971.02;;;7.78;72.59
76137;BME280;65019;53.174;18.166;2022-11-14T15:57:57;101974.91;;;7.73;72.54
76137;BME280;65019;53.174;18.166;2022-11-14T16:00:45;101969.92;;;7.81;72.56
76137;BME280;65019;53.174;18.166;2022-11-14T16:03:30;101971.09;;;7.73;72.70
76137;BME280;65019;53.174;18.166;2022-11-14T16:06:16;101968.37;;;7.72;72.75
76137;BME280;65019;53.174;18.166;2022-11-14T16:09:01;101969.31;;;7.68;72.72
76137;BME280;65019;53.174;18.166;2022-11-14T16:11:46;101967.26;;;7.61;72.84
76137;BME280;65019;53.174;18.166;2022-11-14T16:14:32;101969.59;;;7.66;72.83
76137;BME280;65019;53.174;18.166;2022-11-14T16:17:18;101958.89;;;7.75;72.65
76137;BME280;65019;53.174;18.166;2022-11-14T16:20:05;101957.18;;;7.78;72.57
76137;BME280;65019;53.174;18.166;2022-11-14T16:22:50;101957.78;;;7.70;72.70
76137;BME280;65019;53.174;18.166;2022-11-14T16:25:40;101953.80;;;7.64;72.77
76137;BME280;65019;53.174;18.166;2022-11-14T16:28:25;101949.67;;;7.70;72.59
76137;BME280;65019;53.174;18.166;2022-11-14T16:31:12;101947.66;;;7.72;72.84